sensor_id;sensor_type;location;lat;lon;timestamp;P1;durP1;ratioP1;P2;durP2;ratioP2
22644;SDS011;11489;50.834;6.752;2022-10-31T00:00:20;12.10;;;4.85;;
22644;SDS011;11489;50.834;6.752;2022-10-31T00:02:46;8.77;;;4.35;;
22644;SDS011;11489;50.834;6.752;2022-10-31T00:05:11;7.95;;;4.25;;
22644;SDS011;11489;50.834;6.752;2022-10-31T00:07:37;10.88;;;4.78;;
22644;SDS011;11489;50.834;6.752;2022-10-31T00:10:03;11.85;;;4.75;;
22644;SDS011;11489;50.834;6.752;2022-10-31T00:12:29;10.00;;;5.05;;
22644;SDS011;11489;50.834;6.752;2022-10-31T00:14:54;13.02;;;5.05;;
22644;SDS011;11489;50.834;6.752;2022-10-31T00:17:20;9.55;;;5.20;;
22644;SDS011;11489;50.834;6.752;2022-10-31T00:19:46;10.52;;;4.80;;
22644;SDS011;11489;50.834;6.752;2022-10-31T00:22:11;11.43;;;4.60;;
22644;SDS011;11489;50.834;6.752;2022-10-31T00:24:37;8.52;;;4.40;;
22644;SDS011;11489;50.834;6.752;2022-10-31T00:27:02;13.35;;;6.10;;
22644;SDS011;11489;50.834;6.752;2022-10-31T00:29:28;17.33;;;7.05;;
22644;SDS011;11489;50.834;6.752;2022-10-31T00:31:54;11.07;;;6.50;;
22644;SDS011;11489;50.834;6.752;2022-10-31T00:34:19;12.45;;;5.47;;
22644;SDS011;11489;50.834;6.752;2022-10-31T00:36:45;9.50;;;5.20;;
22644;SDS011;11489;50.834;6.752;2022-10-31T00:39:11;9.13;;;4.70;;
22644;SDS011;11489;50.834;6.752;2022-10-31T00:41:37;10.30;;;5.07;;
22644;SDS011;11489;50.834;6.752;2022-10-31T00:44:03;9.15;;;5.40;;
22644;SDS011;11489;50.834;6.752;2022-10-31T00:46:29;10.05;;;5.18;;
22644;SDS011;11489;50.834;6.752;2022-10-31T00:48:54;9.20;;;4.82;;
22644;SDS011;11489;50.834;6.752;2022-10-31T00:51:20;8.13;;;4.75;;
22644;SDS011;11489;50.834;6.752;2022-10-31T00:53:46;11.05;;;5.03;;
22644;SDS011;11489;50.834;6.752;2022-10-31T00:56:11;10.38;;;4.63;;
22644;SDS011;11489;50.834;6.752;2022-10-31T00:58:37;9.38;;;4.82;;
22644;SDS011;11489;50.834;6.752;2022-10-31T01:01:03;9.88;;;5.25;;
22644;SDS011;11489;50.834;6.752;2022-10-31T01:03:30;10.00;;;5.13;;
22644;SDS011;11489;50.834;6.752;2022-10-31T01:05:58;11.05;;;4.97;;
22644;SDS011;11489;50.834;6.752;2022-10-31T01:08:25;11.60;;;5.10;;
22644;SDS011;11489;50.834;6.752;2022-10-31T01:11:24;11.45;;;5.18;;
22644;SDS011;11489;50.834;6.752;2022-10-31T01:13:47;7.00;;;4.68;;
22644;SDS011;11489;50.834;6.752;2022-10-31T01:16:15;12.82;;;4.32;;
22644;SDS011;11489;50.834;6.752;2022-10-31T01:18:42;9.18;;;4.85;;
22644;SDS011;11489;50.834;6.752;2022-10-31T01:21:09;11.07;;;4.68;;
22644;SDS011;11489;50.834;6.752;2022-10-31T01:23:46;13.98;;;4.38;;
22644;SDS011;11489;50.834;6.752;2022-10-31T01:26:19;10.30;;;4.40;;
22644;SDS011;11489;50.834;6.752;2022-10-31T01:28:51;9.15;;;4.28;;
22644;SDS011;11489;50.834;6.752;2022-10-31T01:31:19;7.68;;;4.32;;
22644;SDS011;11489;50.834;6.752;2022-10-31T01:33:47;7.95;;;4.72;;
22644;SDS011;11489;50.834;6.752;2022-10-31T01:36:13;10.30;;;4.47;;
22644;SDS011;11489;50.834;6.752;2022-10-31T01:38:41;9.98;;;4.75;;
22644;SDS011;11489;50.834;6.752;2022-10-31T01:41:07;10.02;;;4.80;;
22644;SDS011;11489;50.834;6.752;2022-10-31T01:43:48;11.10;;;4.75;;
22644;SDS011;11489;50.834;6.752;2022-10-31T01:46:17;8.50;;;4.47;;
22644;SDS011;11489;50.834;6.752;2022-10-31T01:48:51;7.47;;;4.20;;
22644;SDS011;11489;50.834;6.752;2022-10-31T01:51:20;8.02;;;4.60;;
22644;SDS011;11489;50.834;6.752;2022-10-31T01:53:48;11.65;;;4.85;;
22644;SDS011;11489;50.834;6.752;2022-10-31T01:56:17;10.57;;;4.90;;
22644;SDS011;11489;50.834;6.752;2022-10-31T01:58:43;8.60;;;4.13;;
22644;SDS011;11489;50.834;6.752;2022-10-31T02:01:11;12.02;;;4.80;;
22644;SDS011;11489;50.834;6.752;2022-10-31T02:03:39;8.82;;;4.82;;
22644;SDS011;11489;50.834;6.752;2022-10-31T02:06:06;8.93;;;4.97;;
22644;SDS011;11489;50.834;6.752;2022-10-31T02:08:38;10.43;;;4.55;;
22644;SDS011;11489;50.834;6.752;2022-10-31T02:11:05;9.50;;;4.65;;
22644;SDS011;11489;50.834;6.752;2022-10-31T02:13:32;8.23;;;4.78;;
22644;SDS011;11489;50.834;6.752;2022-10-31T02:15:59;11.40;;;4.70;;
22644;SDS011;11489;50.834;6.752;2022-10-31T02:18:26;8.75;;;4.57;;
22644;SDS011;11489;50.834;6.752;2022-10-31T02:23:58;13.77;;;4.70;;
22644;SDS011;11489;50.834;6.752;2022-10-31T02:29:21;9.20;;;4.72;;
22644;SDS011;11489;50.834;6.752;2022-10-31T02:32:38;8.50;;;4.47;;
22644;SDS011;11489;50.834;6.752;2022-10-31T02:34:51;9.38;;;4.50;;
22644;SDS011;11489;50.834;6.752;2022-10-31T02:40:15;8.18;;;4.80;;
22644;SDS011;11489;50.834;6.752;2022-10-31T02:45:39;8.20;;;4.57;;
22644;SDS011;11489;50.834;6.752;2022-10-31T02:48:16;9.98;;;4.57;;
22644;SDS011;11489;50.834;6.752;2022-10-31T02:50:50;11.25;;;5.18;;
22644;SDS011;11489;50.834;6.752;2022-10-31T02:53:20;12.65;;;5.50;;
22644;SDS011;11489;50.834;6.752;2022-10-31T02:56:04;8.18;;;4.75;;
22644;SDS011;11489;50.834;6.752;2022-10-31T02:58:35;12.57;;;5.15;;
22644;SDS011;11489;50.834;6.752;2022-10-31T03:03:58;11.55;;;4.68;;
22644;SDS011;11489;50.834;6.752;2022-10-31T03:06:49;9.30;;;4.57;;
22644;SDS011;11489;50.834;6.752;2022-10-31T03:09:46;11.63;;;5.43;;
22644;SDS011;11489;50.834;6.752;2022-10-31T03:17:38;9.98;;;4.53;;
22644;SDS011;11489;50.834;6.752;2022-10-31T03:20:29;9.73;;;4.72;;
22644;SDS011;11489;50.834;6.752;2022-10-31T03:23:06;8.60;;;4.63;;
22644;SDS011;11489;50.834;6.752;2022-10-31T03:25:36;8.32;;;5.00;;
22644;SDS011;11489;50.834;6.752;2022-10-31T03:28:04;10.93;;;4.88;;
22644;SDS011;11489;50.834;6.752;2022-10-31T03:30:32;11.27;;;5.88;;
22644;SDS011;11489;50.834;6.752;2022-10-31T03:33:01;9.88;;;4.88;;
22644;SDS011;11489;50.834;6.752;2022-10-31T03:35:29;11.52;;;5.57;;
22644;SDS011;11489;50.834;6.752;2022-10-31T03:37:57;7.93;;;4.72;;
22644;SDS011;11489;50.834;6.752;2022-10-31T03:40:25;13.30;;;5.30;;
22644;SDS011;11489;50.834;6.752;2022-10-31T03:42:59;8.30;;;4.85;;
22644;SDS011;11489;50.834;6.752;2022-10-31T03:45:29;11.43;;;4.82;;
22644;SDS011;11489;50.834;6.752;2022-10-31T03:47:57;7.93;;;4.47;;
22644;SDS011;11489;50.834;6.752;2022-10-31T03:50:25;11.07;;;4.88;;
22644;SDS011;11489;50.834;6.752;2022-10-31T03:53:02;11.00;;;5.53;;
22644;SDS011;11489;50.834;6.752;2022-10-31T03:55:45;13.60;;;5.07;;
22644;SDS011;11489;50.834;6.752;2022-10-31T03:58:16;13.30;;;5.78;;
22644;SDS011;11489;50.834;6.752;2022-10-31T04:00:47;12.18;;;4.57;;
22644;SDS011;11489;50.834;6.752;2022-10-31T04:03:17;10.20;;;5.00;;
22644;SDS011;11489;50.834;6.752;2022-10-31T04:05:47;11.98;;;5.30;;
22644;SDS011;11489;50.834;6.752;2022-10-31T04:08:17;7.88;;;4.97;;
22644;SDS011;11489;50.834;6.752;2022-10-31T04:10:46;9.35;;;5.05;;
22644;SDS011;11489;50.834;6.752;2022-10-31T04:13:14;10.50;;;5.00;;
22644;SDS011;11489;50.834;6.752;2022-10-31T04:15:44;8.93;;;5.10;;
22644;SDS011;11489;50.834;6.752;2022-10-31T04:18:11;10.98;;;5.10;;
22644;SDS011;11489;50.834;6.752;2022-10-31T04:20:38;9.57;;;4.80;;
22644;SDS011;11489;50.834;6.752;2022-10-31T04:23:05;10.55;;;4.95;;
22644;SDS011;11489;50.834;6.752;2022-10-31T04:25:44;10.68;;;5.40;;
22644;SDS011;11489;50.834;6.752;2022-10-31T04:28:10;8.52;;;5.05;;
22644;SDS011;11489;50.834;6.752;2022-10-31T04:30:35;8.43;;;4.82;;
22644;SDS011;11489;50.834;6.752;2022-10-31T04:33:01;9.63;;;4.90;;
22644;SDS011;11489;50.834;6.752;2022-10-31T04:35:27;8.43;;;5.20;;
22644;SDS011;11489;50.834;6.752;2022-10-31T04:37:52;10.35;;;5.07;;
22644;SDS011;11489;50.834;6.752;2022-10-31T04:40:18;13.65;;;5.45;;
22644;SDS011;11489;50.834;6.752;2022-10-31T04:42:43;11.10;;;5.32;;
22644;SDS011;11489;50.834;6.752;2022-10-31T04:45:09;12.43;;;5.55;;
22644;SDS011;11489;50.834;6.752;2022-10-31T04:47:35;13.00;;;6.22;;
22644;SDS011;11489;50.834;6.752;2022-10-31T04:50:01;8.70;;;5.00;;
22644;SDS011;11489;50.834;6.752;2022-10-31T04:52:27;10.68;;;5.22;;
22644;SDS011;11489;50.834;6.752;2022-10-31T04:54:52;11.52;;;5.80;;
22644;SDS011;11489;50.834;6.752;2022-10-31T04:57:18;8.65;;;4.88;;
22644;SDS011;11489;50.834;6.752;2022-10-31T04:59:44;8.70;;;5.18;;
22644;SDS011;11489;50.834;6.752;2022-10-31T05:02:09;7.93;;;4.70;;
22644;SDS011;11489;50.834;6.752;2022-10-31T05:04:35;9.90;;;5.53;;
22644;SDS011;11489;50.834;6.752;2022-10-31T05:07:00;10.23;;;5.93;;
22644;SDS011;11489;50.834;6.752;2022-10-31T05:09:26;11.20;;;4.85;;
22644;SDS011;11489;50.834;6.752;2022-10-31T05:11:52;9.73;;;4.95;;
22644;SDS011;11489;50.834;6.752;2022-10-31T05:14:17;11.55;;;4.68;;
22644;SDS011;11489;50.834;6.752;2022-10-31T05:16:43;12.00;;;6.10;;
22644;SDS011;11489;50.834;6.752;2022-10-31T05:19:09;9.32;;;5.53;;
22644;SDS011;11489;50.834;6.752;2022-10-31T05:21:34;9.65;;;5.30;;
22644;SDS011;11489;50.834;6.752;2022-10-31T05:24:00;9.00;;;4.95;;
22644;SDS011;11489;50.834;6.752;2022-10-31T05:26:26;13.05;;;5.18;;
22644;SDS011;11489;50.834;6.752;2022-10-31T05:28:51;11.52;;;5.13;;
22644;SDS011;11489;50.834;6.752;2022-10-31T05:31:17;10.32;;;5.10;;
22644;SDS011;11489;50.834;6.752;2022-10-31T05:33:43;11.15;;;5.20;;
22644;SDS011;11489;50.834;6.752;2022-10-31T05:36:08;9.23;;;4.93;;
22644;SDS011;11489;50.834;6.752;2022-10-31T05:38:34;9.45;;;4.75;;
22644;SDS011;11489;50.834;6.752;2022-10-31T05:40:59;13.15;;;4.85;;
22644;SDS011;11489;50.834;6.752;2022-10-31T05:43:26;8.88;;;5.18;;
22644;SDS011;11489;50.834;6.752;2022-10-31T05:45:52;7.43;;;4.60;;
22644;SDS011;11489;50.834;6.752;2022-10-31T05:48:18;9.65;;;5.40;;
22644;SDS011;11489;50.834;6.752;2022-10-31T05:50:44;13.75;;;5.43;;
22644;SDS011;11489;50.834;6.752;2022-10-31T05:53:10;9.13;;;4.72;;
22644;SDS011;11489;50.834;6.752;2022-10-31T05:55:35;8.32;;;4.72;;
22644;SDS011;11489;50.834;6.752;2022-10-31T05:58:01;8.20;;;4.90;;
22644;SDS011;11489;50.834;6.752;2022-10-31T06:00:27;13.35;;;5.30;;
22644;SDS011;11489;50.834;6.752;2022-10-31T06:03:00;10.00;;;5.32;;
22644;SDS011;11489;50.834;6.752;2022-10-31T06:05:34;11.27;;;5.03;;
22644;SDS011;11489;50.834;6.752;2022-10-31T06:08:00;8.70;;;5.07;;
22644;SDS011;11489;50.834;6.752;2022-10-31T06:10:26;8.27;;;4.80;;
22644;SDS011;11489;50.834;6.752;2022-10-31T06:12:52;7.78;;;4.75;;
22644;SDS011;11489;50.834;6.752;2022-10-31T06:15:18;10.20;;;5.00;;
22644;SDS011;11489;50.834;6.752;2022-10-31T06:17:44;10.82;;;4.95;;
22644;SDS011;11489;50.834;6.752;2022-10-31T06:20:10;10.35;;;5.28;;
22644;SDS011;11489;50.834;6.752;2022-10-31T06:22:36;15.40;;;5.65;;
22644;SDS011;11489;50.834;6.752;2022-10-31T06:25:02;13.23;;;5.70;;
22644;SDS011;11489;50.834;6.752;2022-10-31T06:27:28;10.73;;;5.45;;
22644;SDS011;11489;50.834;6.752;2022-10-31T06:29:53;13.98;;;5.75;;
22644;SDS011;11489;50.834;6.752;2022-10-31T06:32:19;12.25;;;5.20;;
22644;SDS011;11489;50.834;6.752;2022-10-31T06:34:45;13.10;;;5.88;;
22644;SDS011;11489;50.834;6.752;2022-10-31T06:37:13;12.95;;;5.50;;
22644;SDS011;11489;50.834;6.752;2022-10-31T06:39:39;15.82;;;5.82;;
22644;SDS011;11489;50.834;6.752;2022-10-31T06:42:05;13.48;;;5.28;;
22644;SDS011;11489;50.834;6.752;2022-10-31T06:44:30;13.45;;;5.72;;
22644;SDS011;11489;50.834;6.752;2022-10-31T06:46:56;10.10;;;5.32;;
22644;SDS011;11489;50.834;6.752;2022-10-31T06:49:22;11.85;;;5.30;;
22644;SDS011;11489;50.834;6.752;2022-10-31T06:51:48;10.52;;;5.35;;
22644;SDS011;11489;50.834;6.752;2022-10-31T06:54:14;11.55;;;5.53;;
22644;SDS011;11489;50.834;6.752;2022-10-31T06:56:40;13.88;;;5.65;;
22644;SDS011;11489;50.834;6.752;2022-10-31T06:59:06;14.15;;;5.95;;
22644;SDS011;11489;50.834;6.752;2022-10-31T07:01:32;14.68;;;5.50;;
22644;SDS011;11489;50.834;6.752;2022-10-31T07:03:57;11.88;;;5.18;;
22644;SDS011;11489;50.834;6.752;2022-10-31T07:06:23;15.77;;;5.07;;
22644;SDS011;11489;50.834;6.752;2022-10-31T07:08:48;9.90;;;5.10;;
22644;SDS011;11489;50.834;6.752;2022-10-31T07:11:15;12.30;;;5.45;;
22644;SDS011;11489;50.834;6.752;2022-10-31T07:13:40;15.70;;;5.47;;
22644;SDS011;11489;50.834;6.752;2022-10-31T07:16:06;13.73;;;4.97;;
22644;SDS011;11489;50.834;6.752;2022-10-31T07:18:32;10.13;;;5.68;;
22644;SDS011;11489;50.834;6.752;2022-10-31T07:20:59;9.65;;;5.28;;
22644;SDS011;11489;50.834;6.752;2022-10-31T07:23:24;11.75;;;5.10;;
22644;SDS011;11489;50.834;6.752;2022-10-31T07:25:56;7.88;;;4.95;;
22644;SDS011;11489;50.834;6.752;2022-10-31T07:28:23;8.88;;;4.72;;
22644;SDS011;11489;50.834;6.752;2022-10-31T07:30:51;14.00;;;5.90;;
22644;SDS011;11489;50.834;6.752;2022-10-31T07:33:17;9.88;;;5.97;;
22644;SDS011;11489;50.834;6.752;2022-10-31T07:35:43;10.75;;;5.38;;
22644;SDS011;11489;50.834;6.752;2022-10-31T07:38:09;11.30;;;5.22;;
22644;SDS011;11489;50.834;6.752;2022-10-31T07:40:36;11.02;;;5.57;;
22644;SDS011;11489;50.834;6.752;2022-10-31T07:43:02;11.95;;;5.78;;
22644;SDS011;11489;50.834;6.752;2022-10-31T07:45:28;9.38;;;5.55;;
22644;SDS011;11489;50.834;6.752;2022-10-31T07:47:54;8.63;;;5.28;;
22644;SDS011;11489;50.834;6.752;2022-10-31T07:50:21;9.48;;;5.30;;
22644;SDS011;11489;50.834;6.752;2022-10-31T07:55:25;11.18;;;5.40;;
22644;SDS011;11489;50.834;6.752;2022-10-31T07:57:55;8.77;;;4.82;;
22644;SDS011;11489;50.834;6.752;2022-10-31T08:00:22;9.65;;;5.43;;
22644;SDS011;11489;50.834;6.752;2022-10-31T08:02:47;15.80;;;6.00;;
22644;SDS011;11489;50.834;6.752;2022-10-31T08:05:13;9.02;;;5.80;;
22644;SDS011;11489;50.834;6.752;2022-10-31T08:07:39;10.88;;;5.65;;
22644;SDS011;11489;50.834;6.752;2022-10-31T08:10:05;11.40;;;5.50;;
22644;SDS011;11489;50.834;6.752;2022-10-31T08:12:31;9.68;;;5.45;;
22644;SDS011;11489;50.834;6.752;2022-10-31T08:14:56;12.80;;;5.95;;
22644;SDS011;11489;50.834;6.752;2022-10-31T08:17:22;8.52;;;5.78;;
22644;SDS011;11489;50.834;6.752;2022-10-31T08:19:47;11.48;;;5.53;;
22644;SDS011;11489;50.834;6.752;2022-10-31T08:22:13;13.23;;;5.82;;
22644;SDS011;11489;50.834;6.752;2022-10-31T08:24:39;12.40;;;6.18;;
22644;SDS011;11489;50.834;6.752;2022-10-31T08:27:04;12.13;;;6.43;;
22644;SDS011;11489;50.834;6.752;2022-10-31T08:29:30;11.70;;;6.03;;
22644;SDS011;11489;50.834;6.752;2022-10-31T08:31:57;13.27;;;6.75;;
22644;SDS011;11489;50.834;6.752;2022-10-31T08:34:23;18.95;;;6.80;;
22644;SDS011;11489;50.834;6.752;2022-10-31T08:36:49;19.83;;;6.63;;
22644;SDS011;11489;50.834;6.752;2022-10-31T08:39:14;16.00;;;7.10;;
22644;SDS011;11489;50.834;6.752;2022-10-31T08:41:40;13.15;;;6.40;;
22644;SDS011;11489;50.834;6.752;2022-10-31T08:44:06;12.18;;;6.82;;
22644;SDS011;11489;50.834;6.752;2022-10-31T08:46:31;16.05;;;6.75;;
22644;SDS011;11489;50.834;6.752;2022-10-31T08:48:57;12.63;;;7.07;;
22644;SDS011;11489;50.834;6.752;2022-10-31T08:51:23;11.00;;;7.00;;
22644;SDS011;11489;50.834;6.752;2022-10-31T08:53:49;13.25;;;6.30;;
22644;SDS011;11489;50.834;6.752;2022-10-31T08:56:14;12.90;;;6.38;;
22644;SDS011;11489;50.834;6.752;2022-10-31T08:58:40;12.95;;;6.38;;
22644;SDS011;11489;50.834;6.752;2022-10-31T09:01:05;13.88;;;6.45;;
22644;SDS011;11489;50.834;6.752;2022-10-31T09:03:31;12.13;;;6.75;;
22644;SDS011;11489;50.834;6.752;2022-10-31T09:05:58;12.88;;;7.10;;
22644;SDS011;11489;50.834;6.752;2022-10-31T09:08:25;13.75;;;6.68;;
22644;SDS011;11489;50.834;6.752;2022-10-31T09:10:51;11.85;;;6.60;;
22644;SDS011;11489;50.834;6.752;2022-10-31T09:13:18;12.32;;;6.45;;
22644;SDS011;11489;50.834;6.752;2022-10-31T09:15:45;10.25;;;5.95;;
22644;SDS011;11489;50.834;6.752;2022-10-31T09:18:13;12.45;;;6.43;;
22644;SDS011;11489;50.834;6.752;2022-10-31T09:20:41;10.77;;;6.20;;
22644;SDS011;11489;50.834;6.752;2022-10-31T09:23:12;9.80;;;5.47;;
22644;SDS011;11489;50.834;6.752;2022-10-31T09:25:38;11.27;;;5.80;;
22644;SDS011;11489;50.834;6.752;2022-10-31T09:28:05;12.95;;;6.35;;
22644;SDS011;11489;50.834;6.752;2022-10-31T09:30:32;15.13;;;6.45;;
22644;SDS011;11489;50.834;6.752;2022-10-31T09:33:01;10.90;;;6.10;;
22644;SDS011;11489;50.834;6.752;2022-10-31T09:35:31;13.15;;;6.05;;
22644;SDS011;11489;50.834;6.752;2022-10-31T09:38:01;12.77;;;6.35;;
22644;SDS011;11489;50.834;6.752;2022-10-31T09:40:39;17.60;;;6.88;;
22644;SDS011;11489;50.834;6.752;2022-10-31T09:43:19;11.90;;;5.85;;
22644;SDS011;11489;50.834;6.752;2022-10-31T09:51:18;10.15;;;6.13;;
22644;SDS011;11489;50.834;6.752;2022-10-31T09:53:56;12.27;;;5.88;;
22644;SDS011;11489;50.834;6.752;2022-10-31T09:56:30;11.35;;;5.82;;
22644;SDS011;11489;50.834;6.752;2022-10-31T09:58:58;12.40;;;5.82;;
22644;SDS011;11489;50.834;6.752;2022-10-31T10:01:38;10.65;;;5.65;;
22644;SDS011;11489;50.834;6.752;2022-10-31T10:04:36;9.48;;;5.47;;
22644;SDS011;11489;50.834;6.752;2022-10-31T10:07:22;13.43;;;5.93;;
22644;SDS011;11489;50.834;6.752;2022-10-31T10:10:40;11.57;;;5.93;;
22644;SDS011;11489;50.834;6.752;2022-10-31T10:16:21;9.50;;;5.80;;
22644;SDS011;11489;50.834;6.752;2022-10-31T10:19:07;10.10;;;4.97;;
22644;SDS011;11489;50.834;6.752;2022-10-31T10:21:58;14.80;;;4.97;;
22644;SDS011;11489;50.834;6.752;2022-10-31T10:24:50;10.43;;;5.20;;
22644;SDS011;11489;50.834;6.752;2022-10-31T10:30:11;10.80;;;4.72;;
22644;SDS011;11489;50.834;6.752;2022-10-31T10:35:29;10.70;;;5.03;;
22644;SDS011;11489;50.834;6.752;2022-10-31T10:38:08;11.43;;;5.20;;
22644;SDS011;11489;50.834;6.752;2022-10-31T10:40:39;14.88;;;5.25;;
22644;SDS011;11489;50.834;6.752;2022-10-31T10:43:21;11.20;;;5.40;;
22644;SDS011;11489;50.834;6.752;2022-10-31T10:54:54;11.88;;;5.40;;
22644;SDS011;11489;50.834;6.752;2022-10-31T11:00:14;12.98;;;5.30;;
22644;SDS011;11489;50.834;6.752;2022-10-31T11:03:04;12.63;;;5.75;;
22644;SDS011;11489;50.834;6.752;2022-10-31T11:08:09;11.65;;;5.70;;
22644;SDS011;11489;50.834;6.752;2022-10-31T11:10:36;9.43;;;4.95;;
22644;SDS011;11489;50.834;6.752;2022-10-31T11:13:17;11.88;;;5.57;;
22644;SDS011;11489;50.834;6.752;2022-10-31T11:18:37;8.57;;;5.35;;
22644;SDS011;11489;50.834;6.752;2022-10-31T11:21:05;8.65;;;5.15;;
22644;SDS011;11489;50.834;6.752;2022-10-31T11:23:43;10.38;;;5.18;;
22644;SDS011;11489;50.834;6.752;2022-10-31T11:26:15;9.02;;;5.00;;
22644;SDS011;11489;50.834;6.752;2022-10-31T11:28:55;10.30;;;5.05;;
22644;SDS011;11489;50.834;6.752;2022-10-31T11:31:22;12.32;;;5.75;;
22644;SDS011;11489;50.834;6.752;2022-10-31T11:33:51;9.18;;;5.20;;
22644;SDS011;11489;50.834;6.752;2022-10-31T11:36:27;15.18;;;5.30;;
22644;SDS011;11489;50.834;6.752;2022-10-31T11:38:55;9.27;;;5.85;;
22644;SDS011;11489;50.834;6.752;2022-10-31T11:41:28;12.02;;;5.50;;
22644;SDS011;11489;50.834;6.752;2022-10-31T11:44:00;9.38;;;5.15;;
22644;SDS011;11489;50.834;6.752;2022-10-31T11:46:37;9.70;;;5.63;;
22644;SDS011;11489;50.834;6.752;2022-10-31T11:49:15;10.90;;;5.05;;
22644;SDS011;11489;50.834;6.752;2022-10-31T11:51:49;11.23;;;5.35;;
22644;SDS011;11489;50.834;6.752;2022-10-31T11:54:22;9.80;;;5.53;;
22644;SDS011;11489;50.834;6.752;2022-10-31T11:56:51;10.57;;;4.97;;
22644;SDS011;11489;50.834;6.752;2022-10-31T11:59:19;13.27;;;5.80;;
22644;SDS011;11489;50.834;6.752;2022-10-31T12:01:51;9.77;;;4.70;;
22644;SDS011;11489;50.834;6.752;2022-10-31T12:04:18;8.75;;;5.22;;
22644;SDS011;11489;50.834;6.752;2022-10-31T12:06:49;12.05;;;5.68;;
22644;SDS011;11489;50.834;6.752;2022-10-31T12:14:41;13.35;;;5.15;;
22644;SDS011;11489;50.834;6.752;2022-10-31T12:17:18;8.68;;;4.95;;
22644;SDS011;11489;50.834;6.752;2022-10-31T12:25:17;11.63;;;4.80;;
22644;SDS011;11489;50.834;6.752;2022-10-31T12:30:58;9.02;;;5.28;;
22644;SDS011;11489;50.834;6.752;2022-10-31T12:33:55;12.05;;;4.88;;
22644;SDS011;11489;50.834;6.752;2022-10-31T12:42:18;10.43;;;4.85;;
22644;SDS011;11489;50.834;6.752;2022-10-31T12:50:57;9.45;;;4.70;;
22644;SDS011;11489;50.834;6.752;2022-10-31T12:56:27;11.57;;;5.13;;
22644;SDS011;11489;50.834;6.752;2022-10-31T12:59:04;11.40;;;5.30;;
22644;SDS011;11489;50.834;6.752;2022-10-31T13:01:38;10.57;;;4.50;;
22644;SDS011;11489;50.834;6.752;2022-10-31T13:07:08;11.25;;;4.72;;
22644;SDS011;11489;50.834;6.752;2022-10-31T13:09:54;10.15;;;4.60;;
22644;SDS011;11489;50.834;6.752;2022-10-31T13:12:22;10.38;;;4.68;;
22644;SDS011;11489;50.834;6.752;2022-10-31T13:14:50;8.48;;;4.28;;
22644;SDS011;11489;50.834;6.752;2022-10-31T13:17:31;8.15;;;3.90;;
22644;SDS011;11489;50.834;6.752;2022-10-31T13:20:05;10.90;;;4.40;;
22644;SDS011;11489;50.834;6.752;2022-10-31T13:22:38;8.40;;;4.28;;
22644;SDS011;11489;50.834;6.752;2022-10-31T13:27:44;8.25;;;4.28;;
22644;SDS011;11489;50.834;6.752;2022-10-31T13:30:18;6.35;;;3.90;;
22644;SDS011;11489;50.834;6.752;2022-10-31T13:32:51;9.18;;;3.78;;
22644;SDS011;11489;50.834;6.752;2022-10-31T13:35:25;13.32;;;4.18;;
22644;SDS011;11489;50.834;6.752;2022-10-31T13:46:26;11.52;;;4.43;;
22644;SDS011;11489;50.834;6.752;2022-10-31T13:48:59;10.63;;;3.95;;
22644;SDS011;11489;50.834;6.752;2022-10-31T13:51:26;9.82;;;4.10;;
22644;SDS011;11489;50.834;6.752;2022-10-31T13:56:23;9.00;;;3.92;;
22644;SDS011;11489;50.834;6.752;2022-10-31T13:59:15;7.38;;;3.95;;
22644;SDS011;11489;50.834;6.752;2022-10-31T14:01:45;8.68;;;4.15;;
22644;SDS011;11489;50.834;6.752;2022-10-31T14:05:03;8.27;;;3.78;;
22644;SDS011;11489;50.834;6.752;2022-10-31T14:07:19;9.07;;;3.78;;
22644;SDS011;11489;50.834;6.752;2022-10-31T14:09:59;11.68;;;3.45;;
22644;SDS011;11489;50.834;6.752;2022-10-31T14:15:53;8.77;;;4.07;;
22644;SDS011;11489;50.834;6.752;2022-10-31T14:17:53;10.60;;;3.92;;
22644;SDS011;11489;50.834;6.752;2022-10-31T14:20:30;7.25;;;3.33;;
22644;SDS011;11489;50.834;6.752;2022-10-31T14:23:12;9.65;;;3.55;;
22644;SDS011;11489;50.834;6.752;2022-10-31T14:31:43;8.57;;;3.65;;
22644;SDS011;11489;50.834;6.752;2022-10-31T14:34:29;11.10;;;4.00;;
22644;SDS011;11489;50.834;6.752;2022-10-31T14:43:01;11.25;;;3.42;;
22644;SDS011;11489;50.834;6.752;2022-10-31T14:51:02;6.47;;;3.35;;
22644;SDS011;11489;50.834;6.752;2022-10-31T14:53:37;8.73;;;3.35;;
22644;SDS011;11489;50.834;6.752;2022-10-31T14:56:10;9.98;;;3.45;;
22644;SDS011;11489;50.834;6.752;2022-10-31T14:58:44;7.53;;;3.47;;
22644;SDS011;11489;50.834;6.752;2022-10-31T15:01:28;9.20;;;2.92;;
22644;SDS011;11489;50.834;6.752;2022-10-31T15:04:08;5.75;;;3.17;;
22644;SDS011;11489;50.834;6.752;2022-10-31T15:06:42;6.68;;;3.22;;
22644;SDS011;11489;50.834;6.752;2022-10-31T15:09:23;9.35;;;3.58;;
22644;SDS011;11489;50.834;6.752;2022-10-31T15:11:53;10.32;;;3.40;;
22644;SDS011;11489;50.834;6.752;2022-10-31T15:14:24;5.78;;;2.90;;
22644;SDS011;11489;50.834;6.752;2022-10-31T15:16:57;8.82;;;3.15;;
22644;SDS011;11489;50.834;6.752;2022-10-31T15:19:25;5.35;;;3.10;;
22644;SDS011;11489;50.834;6.752;2022-10-31T15:21:53;6.70;;;3.20;;
22644;SDS011;11489;50.834;6.752;2022-10-31T15:24:22;5.30;;;3.10;;
22644;SDS011;11489;50.834;6.752;2022-10-31T15:26:53;9.65;;;3.38;;
22644;SDS011;11489;50.834;6.752;2022-10-31T15:29:24;8.57;;;3.40;;
22644;SDS011;11489;50.834;6.752;2022-10-31T15:31:51;9.50;;;3.28;;
22644;SDS011;11489;50.834;6.752;2022-10-31T15:34:37;8.80;;;3.30;;
22644;SDS011;11489;50.834;6.752;2022-10-31T15:37:07;4.72;;;2.70;;
22644;SDS011;11489;50.834;6.752;2022-10-31T15:39:39;9.32;;;3.05;;
22644;SDS011;11489;50.834;6.752;2022-10-31T15:42:13;6.55;;;2.60;;
22644;SDS011;11489;50.834;6.752;2022-10-31T15:44:46;5.35;;;2.92;;
22644;SDS011;11489;50.834;6.752;2022-10-31T15:47:24;6.38;;;2.80;;
22644;SDS011;11489;50.834;6.752;2022-10-31T15:49:54;5.88;;;3.13;;
22644;SDS011;11489;50.834;6.752;2022-10-31T15:55:14;7.18;;;3.10;;
22644;SDS011;11489;50.834;6.752;2022-10-31T15:57:47;8.18;;;2.83;;
22644;SDS011;11489;50.834;6.752;2022-10-31T16:00:22;6.95;;;2.95;;
22644;SDS011;11489;50.834;6.752;2022-10-31T16:02:48;8.52;;;3.38;;
22644;SDS011;11489;50.834;6.752;2022-10-31T16:05:14;9.25;;;3.20;;
22644;SDS011;11489;50.834;6.752;2022-10-31T16:07:51;8.75;;;3.35;;
22644;SDS011;11489;50.834;6.752;2022-10-31T16:10:26;8.52;;;3.15;;
22644;SDS011;11489;50.834;6.752;2022-10-31T16:12:57;7.22;;;3.00;;
22644;SDS011;11489;50.834;6.752;2022-10-31T16:15:22;8.20;;;3.35;;
22644;SDS011;11489;50.834;6.752;2022-10-31T16:17:49;7.30;;;2.85;;
22644;SDS011;11489;50.834;6.752;2022-10-31T16:20:21;11.80;;;3.70;;
22644;SDS011;11489;50.834;6.752;2022-10-31T16:22:50;7.10;;;3.22;;
22644;SDS011;11489;50.834;6.752;2022-10-31T16:28:02;7.63;;;3.38;;
22644;SDS011;11489;50.834;6.752;2022-10-31T16:30:37;9.95;;;3.53;;
22644;SDS011;11489;50.834;6.752;2022-10-31T16:33:10;6.80;;;3.35;;
22644;SDS011;11489;50.834;6.752;2022-10-31T16:35:45;7.68;;;3.17;;
22644;SDS011;11489;50.834;6.752;2022-10-31T16:38:11;10.40;;;3.20;;
22644;SDS011;11489;50.834;6.752;2022-10-31T16:40:39;5.97;;;3.03;;
22644;SDS011;11489;50.834;6.752;2022-10-31T16:43:09;8.57;;;3.22;;
22644;SDS011;11489;50.834;6.752;2022-10-31T16:45:38;8.52;;;3.60;;
22644;SDS011;11489;50.834;6.752;2022-10-31T16:48:15;6.72;;;3.50;;
22644;SDS011;11489;50.834;6.752;2022-10-31T16:50:46;6.13;;;3.47;;
22644;SDS011;11489;50.834;6.752;2022-10-31T16:53:12;11.50;;;3.25;;
22644;SDS011;11489;50.834;6.752;2022-10-31T16:55:46;9.18;;;3.80;;
22644;SDS011;11489;50.834;6.752;2022-10-31T16:58:29;5.93;;;3.58;;
22644;SDS011;11489;50.834;6.752;2022-10-31T17:00:58;6.18;;;3.38;;
22644;SDS011;11489;50.834;6.752;2022-10-31T17:03:24;7.70;;;3.83;;